Time;durP1;ratioP1;P1;durP2;ratioP2;P2;SDS_P1;SDS_P2;PMS_P1;PMS_P2;Temp;Humidity;BMP_temperature;BMP_pressure;BME280_temperature;BME280_humidity;BME280_pressure;Samples;Min_cycle;Max_cycle;Signal;HPM_P1;HPM_P2
2024/01/14 11:05:06;;;;;;;23.58;16.10;;;10.60;68.10;;;1.55;79.07;95094.41;5022739;28;20419;-52
2024/01/14 11:07:36;;;;;;;25.02;16.50;;;11.50;64.90;;;2.31;76.32;95088.56;5000448;28;20075;-54
2024/01/14 11:10:07;;;;;;;22.60;16.55;;;12.70;61.70;;;2.43;72.83;95079.91;4992835;28;20030;-54
2024/01/14 11:13:10;;;;;;;22.52;16.73;;;13.70;58.70;;;2.50;71.64;95078.78;4999204;28;20052;-53
2024/01/14 11:15:55;;;;;;;21.95;16.83;;;14.60;56.00;;;2.72;70.90;95073.78;4996601;28;20491;-56
2024/01/14 11:18:48;;;;;;;20.52;16.33;;;15.70;54.00;;;2.93;70.07;95075.06;4991035;28;20046;-55
2024/01/14 11:21:26;;;;;;;23.95;17.42;;;16.50;52.00;;;3.39;70.35;95067.38;4996471;28;20061;-56
2024/01/14 11:23:52;;;;;;;22.70;17.02;;;17.30;50.30;;;3.96;66.50;95064.78;4998197;28;20217;-55
2024/01/14 11:26:18;;;;;;;21.95;17.05;;;18.10;49.10;;;4.53;65.95;95048.09;4994505;28;20105;-55
2024/01/14 11:28:45;;;;;;;22.48;17.27;;;19.00;48.40;;;5.05;63.00;95047.84;4998482;28;20029;-54
2024/01/14 11:31:11;;;;;;;22.45;17.73;;;19.80;47.40;;;5.49;62.17;95043.41;5005906;28;20026;-55
2024/01/14 11:33:42;;;;;;;19.25;15.60;;;20.20;45.60;;;6.12;60.09;95043.88;4983498;28;20113;-55
2024/01/14 11:36:10;;;;;;;23.07;17.10;;;20.80;45.10;;;6.37;56.42;95034.59;4991731;28;20411;-56
2024/01/14 11:38:44;;;;;;;22.65;17.75;;;21.30;45.00;;;6.45;57.36;95031.47;4992340;28;20086;-53
2024/01/14 11:41:31;;;;;;;19.67;16.75;;;21.80;43.70;;;6.98;55.38;95031.63;4988319;28;20052;-55
2024/01/14 11:44:27;;;;;;;22.13;17.55;;;22.20;43.30;;;7.05;54.90;95027.72;4996753;28;20400;-55
2024/01/14 11:46:54;;;;;;;21.10;17.42;;;22.30;42.10;;;7.12;55.45;95017.69;5010576;28;20033;-51
2024/01/14 11:49:27;;;;;;;20.70;16.00;;;22.30;41.70;;;6.95;54.45;95009.88;4998439;28;20086;-51
2024/01/14 11:52:06;;;;;;;18.92;15.27;;;22.30;41.00;;;6.97;53.53;95003.56;5010298;28;20051;-52
2024/01/14 11:54:32;;;;;;;21.65;16.15;;;22.30;40.90;;;6.69;54.82;94993.03;5000076;28;20095;-54
2024/01/14 11:57:01;;;;;;;19.35;15.73;;;22.20;40.20;;;7.00;54.02;94981.88;4997719;28;20022;-56
2024/01/14 11:59:27;;;;;;;22.48;16.83;;;22.10;40.10;;;6.80;54.20;94979.88;4995703;28;20041;-52
2024/01/14 12:01:53;;;;;;;21.05;16.38;;;21.90;40.10;;;6.80;53.82;94977.22;5011524;28;20517;-54
2024/01/14 12:04:23;;;;;;;20.65;16.05;;;21.80;40.10;;;6.66;55.30;94977.66;4999043;28;20124;-52
2024/01/14 12:06:49;;;;;;;19.52;14.93;;;21.60;40.00;;;6.63;55.69;94977.38;4994538;28;20480;-54
2024/01/14 12:09:17;;;;;;;19.63;14.95;;;21.50;40.00;;;6.55;54.87;94969.91;4999192;28;20033;-54
2024/01/14 12:11:43;;;;;;;20.08;14.75;;;21.30;40.00;;;6.55;55.05;94960.16;4985976;28;20018;-55
2024/01/14 12:14:12;;;;;;;20.35;14.50;;;21.20;40.20;;;6.80;54.71;94951.56;4997170;28;20053;-56
2024/01/14 12:16:42;;;;;;;20.85;15.07;;;21.10;40.20;;;6.63;55.11;94945.63;4983082;23;20050;-51
2024/01/14 12:19:20;;;;;;;18.83;14.73;;;21.00;39.80;;;6.38;55.11;94940.97;4969080;28;20060;-51
2024/01/14 12:21:46;;;;;;;20.90;14.85;;;20.90;39.10;;;6.20;55.02;94936.84;4961813;28;20081;-49
2024/01/14 12:24:13;;;;;;;20.85;14.38;;;20.60;39.40;;;6.27;55.34;94926.88;4963231;28;20030;-53
2024/01/14 12:26:44;;;;;;;18.38;14.27;;;20.20;39.40;;;6.10;55.22;94919.03;4963413;28;20497;-53
2024/01/14 12:29:10;;;;;;;19.55;14.40;;;20.00;39.40;;;5.63;57.19;94918.84;4951844;28;20022;-55
2024/01/14 12:31:36;;;;;;;20.35;13.38;;;19.70;39.20;;;5.43;56.06;94903.59;4968080;28;20076;-56
2024/01/14 12:34:08;;;;;;;18.02;13.35;;;19.40;39.20;;;5.21;57.90;94899.16;4961903;28;20057;-56
2024/01/14 12:36:35;;;;;;;18.80;14.23;;;19.20;39.20;;;5.34;58.99;94901.41;4964365;28;20560;-57
2024/01/14 12:39:03;;;;;;;18.90;14.00;;;18.90;39.60;;;5.40;58.92;94898.81;4956808;28;20027;-55
2024/01/14 12:41:29;;;;;;;18.65;12.82;;;18.70;39.60;;;5.36;59.03;94895.88;4957473;28;20117;-55
2024/01/14 12:43:57;;;;;;;19.58;14.45;;;18.50;39.80;;;5.16;60.06;94885.88;4963847;28;20073;-53
2024/01/14 12:46:22;;;;;;;19.63;13.10;;;18.30;40.00;;;4.50;59.89;94877.94;4951867;28;20030;-55
2024/01/14 12:48:49;;;;;;;19.55;13.73;;;18.10;40.00;;;4.53;61.82;94874.03;4959474;28;20030;-54
2024/01/14 12:51:20;;;;;;;20.40;13.77;;;17.90;39.90;;;4.80;60.73;94877.56;4966836;28;20034;-50
2024/01/14 12:53:57;;;;;;;17.83;13.35;;;17.70;39.70;;;5.01;59.68;94859.31;4951119;28;20034;-55
2024/01/14 12:56:24;;;;;;;17.92;13.23;;;17.60;39.90;;;5.03;59.23;94851.94;4963499;28;20053;-51
2024/01/14 12:58:51;;;;;;;17.67;13.05;;;17.50;40.60;;;4.82;60.60;94854.34;4962501;28;20026;-54
2024/01/14 13:01:18;;;;;;;17.73;13.18;;;17.40;40.40;;;5.00;59.00;94845.31;4958168;28;20029;-55
2024/01/14 13:03:46;;;;;;;15.98;11.93;;;17.30;40.40;;;4.91;60.21;94846.00;4960113;28;20488;-50
2024/01/14 13:06:12;;;;;;;17.52;12.35;;;17.20;40.40;;;5.02;60.67;94839.81;4945369;28;20030;-49
2024/01/14 13:08:39;;;;;;;17.10;10.70;;;17.10;40.70;;;5.12;59.13;94841.75;4960911;28;20026;-55
2024/01/14 13:11:05;;;;;;;15.25;11.25;;;17.10;40.70;;;5.23;59.75;94838.97;4967871;28;20112;-52
2024/01/14 13:13:31;;;;;;;15.63;11.18;;;17.00;40.60;;;5.22;57.11;94829.44;4957575;28;20035;-54
2024/01/14 13:15:57;;;;;;;15.85;11.48;;;17.00;40.60;;;5.27;57.01;94829.50;4953006;28;20134;-52
2024/01/14 13:18:24;;;;;;;15.38;10.68;;;16.90;40.50;;;5.31;58.43;94822.66;4954567;28;20168;-50
2024/01/14 13:20:50;;;;;;;15.45;10.68;;;16.80;40.50;;;5.41;57.46;94814.03;4956958;28;20034;-55
2024/01/14 13:23:16;;;;;;;15.95;10.65;;;16.80;40.80;;;5.35;56.48;94815.03;4959020;28;20034;-55
2024/01/14 13:25:42;;;;;;;14.18;10.82;;;16.80;40.60;;;5.26;56.07;94812.03;4955017;28;20023;-51
2024/01/14 13:28:08;;;;;;;13.23;10.13;;;16.70;40.20;;;4.91;57.06;94795.84;4948160;28;20395;-51
2024/01/14 13:30:34;;;;;;;14.45;10.40;;;16.60;40.20;;;4.82;59.96;94792.84;4952094;28;20157;-53
2024/01/14 13:33:00;;;;;;;13.73;9.68;;;16.40;40.40;;;4.82;58.14;94796.28;4954641;28;20076;-50
2024/01/14 13:35:26;;;;;;;13.90;9.93;;;16.30;40.30;;;5.08;60.29;94789.44;4949833;28;20038;-51
2024/01/14 13:37:52;;;;;;;14.38;10.13;;;16.20;40.40;;;5.09;58.37;94783.09;4944556;28;20037;-50
2024/01/14 13:40:18;;;;;;;13.02;9.90;;;16.00;40.60;;;5.10;58.65;94783.91;4950119;28;20030;-52
2024/01/14 13:42:45;;;;;;;14.07;10.15;;;16.00;40.90;;;5.17;56.72;94778.41;4966604;28;20030;-53
2024/01/14 13:45:11;;;;;;;13.27;9.88;;;16.00;40.90;;;5.25;57.22;94773.50;4956313;28;20389;-50
2024/01/14 13:47:37;;;;;;;15.05;10.57;;;16.00;41.00;;;5.34;58.51;94776.47;4958667;28;20034;-51
2024/01/14 13:50:06;;;;;;;13.40;9.57;;;16.00;41.10;;;5.05;56.78;94782.03;4960385;28;20362;-51
2024/01/14 13:52:32;;;;;;;13.15;9.80;;;15.90;40.90;;;4.74;58.47;94774.84;4955432;28;20477;-48
2024/01/14 13:54:58;;;;;;;13.10;9.80;;;15.90;40.90;;;4.72;58.50;94776.91;4956847;28;20548;-48
2024/01/14 13:57:25;;;;;;;15.60;10.80;;;15.80;40.70;;;4.83;59.08;94771.50;4951174;28;20117;-57
2024/01/14 13:59:51;;;;;;;14.27;10.55;;;15.70;40.80;;;4.86;58.10;94775.50;4951815;28;20030;-50
2024/01/14 14:02:19;;;;;;;15.27;10.77;;;15.60;40.80;;;4.77;59.88;94769.06;4956687;28;20425;-55
2024/01/14 14:04:46;;;;;;;13.88;10.55;;;15.50;40.80;;;4.25;58.76;94761.59;4957596;28;20081;-49
2024/01/14 14:07:12;;;;;;;17.95;9.77;;;15.30;40.70;;;4.22;59.53;94762.06;4954747;28;20556;-51
2024/01/14 14:09:38;;;;;;;13.85;9.52;;;15.20;40.80;;;4.16;59.12;94761.22;4944453;28;20162;-52
2024/01/14 14:12:05;;;;;;;15.98;10.13;;;15.00;40.90;;;4.12;60.87;94760.91;4950354;28;20023;-54
2024/01/14 14:14:32;;;;;;;14.18;10.75;;;14.90;40.90;;;4.21;61.35;94761.28;4946905;28;20035;-50
2024/01/14 14:16:58;;;;;;;15.20;10.65;;;14.80;41.20;;;4.29;61.61;94760.84;4942721;28;20074;-48
2024/01/14 14:19:24;;;;;;;15.93;10.75;;;14.80;41.30;;;4.11;62.02;94758.53;4950125;28;20449;-49
2024/01/14 14:21:53;;;;;;;16.38;10.95;;;14.80;41.60;;;3.99;62.90;94758.63;4944820;28;20050;-50
2024/01/14 14:24:18;;;;;;;18.85;11.68;;;14.70;41.40;;;3.77;62.59;94749.88;4949607;28;20493;-50
2024/01/14 14:26:44;;;;;;;17.42;11.65;;;14.30;41.20;;;3.43;64.09;94748.06;4941257;28;20034;-52
2024/01/14 14:29:10;;;;;;;18.85;11.73;;;13.60;41.40;;;3.21;65.73;94752.44;4950603;28;20073;-50
2024/01/14 14:31:36;;;;;;;18.90;11.85;;;12.80;41.80;;;2.86;67.09;94748.19;4948916;28;20026;-51
2024/01/14 14:34:02;;;;;;;17.48;10.68;;;12.10;42.30;;;2.52;68.39;94742.81;4942861;28;20030;-49
2024/01/14 14:36:28;;;;;;;18.60;11.77;;;11.40;42.90;;;2.30;70.78;94736.63;4942229;28;20390;-52
2024/01/14 14:38:54;;;;;;;22.77;12.07;;;10.70;43.50;;;2.01;72.57;94741.81;4944137;28;20031;-53
2024/01/14 14:41:22;;;;;;;19.15;11.40;;;10.10;44.20;;;1.71;75.36;94749.03;4944670;28;20046;-52
2024/01/14 14:43:48;;;;;;;23.55;12.73;;;9.50;44.80;;;1.44;76.96;94748.69;4952330;28;20485;-54
2024/01/14 14:46:14;;;;;;;21.88;11.93;;;9.00;45.50;;;1.29;78.97;94744.69;4947662;28;20029;-49
2024/01/14 14:48:40;;;;;;;17.20;10.48;;;8.60;46.20;;;1.14;78.67;94734.63;4947072;28;20023;-47
2024/01/14 14:51:06;;;;;;;17.67;10.07;;;8.20;46.80;;;0.96;79.39;94736.53;4941877;28;20022;-48
2024/01/14 14:53:32;;;;;;;16.45;9.07;;;7.80;47.30;;;0.64;76.88;94729.72;4943899;28;20054;-52
2024/01/14 14:55:58;;;;;;;16.92;9.32;;;7.50;47.70;;;0.48;77.23;94729.56;4949834;28;20110;-53
2024/01/14 14:58:24;;;;;;;16.20;8.52;;;7.20;48.00;;;0.37;79.21;94729.28;4953195;28;20501;-54
2024/01/14 15:00:50;;;;;;;15.38;8.27;;;7.00;48.40;;;0.18;78.12;94722.47;4945655;28;20026;-48
2024/01/14 15:03:16;;;;;;;15.88;7.90;;;6.80;48.80;;;0.02;77.50;94721.25;4949029;28;20041;-49
2024/01/14 15:05:42;;;;;;;15.70;8.25;;;6.60;49.10;;;-0.03;79.13;94721.13;4955636;28;20024;-49
2024/01/14 15:08:07;;;;;;;19.52;9.32;;;6.40;49.40;;;-0.06;79.94;94721.56;4947601;28;20422;-50
2024/01/14 15:10:33;;;;;;;14.93;8.18;;;6.20;49.70;;;-0.27;79.81;94715.75;4942685;28;20011;-50
2024/01/14 15:12:59;;;;;;;18.83;8.95;;;6.10;50.10;;;-0.26;80.55;94709.47;4938481;28;20031;-49
2024/01/14 15:15:28;;;;;;;18.08;9.48;;;6.00;50.30;;;-0.28;80.70;94714.16;4942568;28;20442;-49
2024/01/14 15:17:54;;;;;;;17.45;9.30;;;5.80;50.60;;;-0.33;81.76;94719.22;4949337;28;20114;-54
2024/01/14 15:20:20;;;;;;;19.42;9.40;;;5.70;50.90;;;-0.43;81.99;94713.69;4944404;28;20118;-49
2024/01/14 15:22:47;;;;;;;16.70;8.80;;;5.60;51.20;;;-0.57;83.64;94709.59;4948006;28;20023;-49
2024/01/14 15:25:13;;;;;;;19.48;9.35;;;5.50;51.50;;;-0.58;85.20;94705.41;4948671;28;20567;-48
2024/01/14 15:27:39;;;;;;;17.25;9.32;;;5.40;51.70;;;-0.57;85.65;94707.78;4941592;28;20031;-47
2024/01/14 15:30:06;;;;;;;17.70;8.82;;;5.30;51.90;;;-0.61;85.36;94713.69;4946361;28;20026;-49
2024/01/14 15:32:32;;;;;;;17.38;9.45;;;5.20;52.20;;;-0.66;84.82;94706.47;4949925;28;20401;-54
2024/01/14 15:34:58;;;;;;;19.60;9.32;;;5.10;52.40;;;-0.71;87.18;94709.75;4945464;28;20036;-50
2024/01/14 15:37:24;;;;;;;19.15;9.40;;;5.10;52.70;;;-0.80;86.95;94692.72;4946240;28;20050;-49
2024/01/14 15:39:50;;;;;;;15.32;8.75;;;5.00;52.90;;;-0.83;86.52;94698.38;4949799;28;20077;-49
2024/01/14 15:42:16;;;;;;;19.08;8.68;;;4.90;53.10;;;-0.86;86.90;94701.41;4950802;28;20023;-50
2024/01/14 15:44:41;;;;;;;17.00;9.00;;;4.80;53.30;;;-0.90;86.61;94694.22;4972870;28;20077;-50
2024/01/14 15:47:07;;;;;;;22.48;9.18;;;4.80;53.50;;;-0.89;87.11;94688.78;4940750;28;20078;-50
2024/01/14 15:49:34;;;;;;;17.48;8.27;;;4.70;53.60;;;-0.90;86.81;94695.03;4953760;28;20062;-47
2024/01/14 15:52:00;;;;;;;17.23;8.65;;;4.70;53.80;;;-0.98;87.27;94690.84;4957574;28;20027;-49
2024/01/14 15:54:26;;;;;;;17.75;8.38;;;4.60;53.90;;;-1.02;86.87;94699.34;4953101;28;20030;-49
2024/01/14 15:56:53;;;;;;;22.83;9.10;;;4.60;54.10;;;-0.99;85.67;94686.66;4957800;28;20041;-52
2024/01/14 15:59:19;;;;;;;19.25;9.55;;;4.50;54.20;;;-0.97;86.56;94676.78;4957372;28;20027;-48
2024/01/14 16:01:45;;;;;;;14.77;8.02;;;4.50;54.30;;;-1.01;85.82;94674.81;4961691;28;20053;-49
2024/01/14 16:04:10;;;;;;;16.88;8.57;;;4.50;54.40;;;-0.97;86.97;94655.06;4964982;28;20035;-47
2024/01/14 16:06:36;;;;;;;15.23;8.40;;;4.50;54.50;;;-0.95;87.25;94666.91;4957185;28;20149;-50
2024/01/14 16:09:04;;;;;;;16.63;7.85;;;4.50;54.60;;;-0.97;86.39;94665.53;4947993;28;20030;-47
2024/01/14 16:11:30;;;;;;;16.75;8.95;;;4.50;55.20;;;-0.96;87.45;94667.13;4945421;28;20034;-50
2024/01/14 16:13:56;;;;;;;18.60;8.70;;;4.50;54.70;;;-0.93;88.30;94659.66;4943418;28;20026;-49
2024/01/14 16:16:23;;;;;;;20.13;9.93;;;4.40;54.80;;;-0.94;88.67;94657.22;4943730;28;20035;-52
2024/01/14 16:18:49;;;;;;;17.98;9.57;;;4.40;55.00;;;-0.94;87.67;94658.06;4963883;28;20038;-47
2024/01/14 16:21:15;;;;;;;17.55;8.70;;;4.50;55.10;;;-0.93;87.69;94661.47;4941310;28;20027;-51
2024/01/14 16:23:41;;;;;;;17.38;8.57;;;4.40;55.10;;;-0.92;87.83;94657.81;4950251;28;20034;-48
2024/01/14 16:26:08;;;;;;;16.92;8.60;;;4.50;55.20;;;-0.91;87.23;94651.56;4937886;28;20166;-55
2024/01/14 16:28:34;;;;;;;14.88;7.75;;;4.40;55.20;;;-0.88;87.50;94648.53;4947417;28;20505;-50
2024/01/14 16:31:00;;;;;;;18.98;8.80;;;4.50;55.20;;;-0.89;87.68;94644.31;4959855;28;20041;-50
2024/01/14 16:33:26;;;;;;;19.90;9.10;;;4.40;55.20;;;-0.88;88.66;94639.88;4947562;28;20031;-55
2024/01/14 16:35:52;;;;;;;16.70;8.70;;;4.50;55.40;;;-0.87;88.04;94634.47;4954491;28;20163;-50
2024/01/14 16:38:18;;;;;;;18.38;8.35;;;4.50;55.40;;;-0.89;88.52;94639.09;4940234;28;20031;-50
2024/01/14 16:40:44;;;;;;;18.40;9.73;;;4.50;55.50;;;-0.89;88.76;94630.47;4958829;28;20026;-49
2024/01/14 16:43:10;;;;;;;21.05;10.63;;;4.50;55.50;;;-0.88;88.81;94632.03;4950771;28;20030;-47
2024/01/14 16:45:36;;;;;;;28.10;15.43;;;4.50;55.60;;;-0.90;88.52;94627.06;4953569;28;20361;-50
2024/01/14 16:48:02;;;;;;;20.20;10.07;;;4.50;55.60;;;-0.90;89.04;94619.19;4949733;28;20025;-50
2024/01/14 16:50:28;;;;;;;18.40;9.90;;;4.50;55.70;;;-0.90;89.86;94627.06;4956145;28;20121;-56
2024/01/14 16:52:54;;;;;;;23.00;11.73;;;4.50;56.30;;;-0.89;90.62;94623.41;4950242;28;20663;-47
2024/01/14 16:55:20;;;;;;;25.23;12.43;;;4.50;55.80;;;-0.93;91.25;94627.47;4940823;28;20053;-47
2024/01/14 16:57:46;;;;;;;23.95;13.10;;;4.50;55.90;;;-0.96;91.31;94617.44;4953850;28;20023;-47
2024/01/14 17:00:13;;;;;;;20.15;10.75;;;4.40;56.00;;;-0.98;91.91;94635.16;4944115;28;20035;-47
2024/01/14 17:02:39;;;;;;;23.02;10.85;;;4.40;56.20;;;-1.01;90.07;94620.69;4966647;28;20502;-48
2024/01/14 17:05:05;;;;;;;19.35;10.05;;;4.40;56.30;;;-0.99;90.30;94630.97;4947311;28;20034;-49
2024/01/14 17:07:31;;;;;;;23.27;13.13;;;4.40;56.40;;;-0.91;90.67;94630.66;4954492;28;20073;-47
2024/01/14 17:09:57;;;;;;;18.15;9.90;;;4.40;56.40;;;-0.91;91.45;94627.25;4958802;28;20921;-47
2024/01/14 17:12:23;;;;;;;20.83;11.13;;;4.40;56.50;;;-0.92;91.17;94616.00;4941633;28;20081;-52
2024/01/14 17:14:49;;;;;;;18.05;9.55;;;4.40;56.60;;;-0.94;90.56;94626.69;4949725;28;20026;-49
2024/01/14 17:17:15;;;;;;;20.77;10.88;;;4.40;56.70;;;-0.93;90.66;94622.25;4958302;28;20053;-48
2024/01/14 17:19:41;;;;;;;21.73;9.68;;;4.40;56.70;;;-0.96;90.50;94614.84;4954183;28;20031;-48
2024/01/14 17:22:07;;;;;;;21.08;10.05;;;4.40;56.70;;;-0.93;90.47;94624.88;4938201;28;20031;-51
2024/01/14 17:24:33;;;;;;;30.52;14.07;;;4.40;56.80;;;-0.90;91.50;94613.97;4948240;28;20062;-52
2024/01/14 17:27:01;;;;;;;17.05;8.98;;;4.40;56.80;;;-0.89;92.68;94607.72;4945232;28;20030;-48
2024/01/14 17:29:27;;;;;;;18.42;9.30;;;4.40;56.90;;;-0.92;91.85;94613.38;4950010;28;20033;-52
2024/01/14 17:31:53;;;;;;;19.42;9.60;;;4.40;57.60;;;-0.89;92.82;94614.78;4960189;28;20392;-49
2024/01/14 17:34:19;;;;;;;20.27;10.55;;;4.50;57.10;;;-0.85;92.35;94615.94;4938827;28;20030;-49
2024/01/14 17:36:45;;;;;;;17.48;10.25;;;4.50;57.10;;;-0.85;92.41;94616.72;4955485;28;20033;-49
2024/01/14 17:39:11;;;;;;;19.50;9.65;;;4.50;57.10;;;-0.86;92.80;94616.94;4945770;28;20048;-54
2024/01/14 17:41:37;;;;;;;18.75;9.18;;;4.50;57.20;;;-1.00;92.47;94609.25;4952443;28;20549;-49
2024/01/14 17:44:03;;;;;;;20.88;10.73;;;4.40;57.20;;;-1.06;93.05;94611.94;4943405;28;20040;-48
2024/01/14 17:46:30;;;;;;;19.85;10.27;;;4.40;57.30;;;-1.08;93.76;94611.34;4949366;28;20097;-50
2024/01/14 17:48:55;;;;;;;22.63;10.32;;;4.40;57.40;;;-1.08;94.27;94606.91;4945487;28;20033;-53
2024/01/14 17:51:22;;;;;;;21.83;10.77;;;4.30;57.50;;;-1.10;94.17;94603.69;4954246;28;20030;-47
2024/01/14 17:53:51;;;;;;;20.00;10.27;;;4.30;57.60;;;-1.18;94.81;94602.16;4950707;28;20370;-47
2024/01/14 17:56:17;;;;;;;24.17;10.70;;;4.30;57.80;;;-1.13;95.32;94608.56;4938373;28;20038;-53
2024/01/14 17:58:43;;;;;;;21.70;10.40;;;4.20;57.70;;;-1.14;95.52;94601.75;4944968;28;20287;-49
2024/01/14 18:01:10;;;;;;;30.65;16.80;;;4.20;57.80;;;-1.14;95.15;94594.69;4950085;28;20018;-48
2024/01/14 18:03:40;;;;;;;29.98;17.00;;;4.20;57.90;;;-1.17;95.28;94595.91;4945428;28;20037;-49
2024/01/14 18:06:06;;;;;;;22.17;12.05;;;4.20;58.00;;;-1.15;95.80;94587.09;4943175;28;20366;-47
2024/01/14 18:08:32;;;;;;;19.08;10.20;;;4.20;58.10;;;-1.18;95.84;94581.25;4942682;28;20113;-47
2024/01/14 18:10:58;;;;;;;19.33;10.02;;;4.20;58.20;;;-1.19;96.82;94595.34;4953203;28;20545;-49
2024/01/14 18:13:24;;;;;;;26.45;11.02;;;4.20;58.30;;;-1.17;96.38;94588.06;4934077;28;20035;-49
2024/01/14 18:15:50;;;;;;;18.55;9.80;;;4.20;58.40;;;-1.12;95.65;94590.06;4942068;28;20035;-48
2024/01/14 18:18:17;;;;;;;22.30;10.30;;;4.20;58.50;;;-1.08;96.07;94578.16;4946280;28;20041;-48
2024/01/14 18:20:43;;;;;;;22.48;10.40;;;4.20;58.40;;;-1.01;96.75;94583.31;4991187;23;20140;-49
2024/01/14 18:23:09;;;;;;;22.65;10.98;;;4.20;58.40;;;-1.05;95.41;94588.16;4951602;28;20030;-50
2024/01/14 18:25:35;;;;;;;21.17;10.32;;;4.20;58.40;;;-1.07;95.53;94584.16;4963140;28;20026;-50
2024/01/14 18:28:02;;;;;;;20.48;10.65;;;4.20;58.50;;;-1.09;96.11;94583.59;4956601;28;20273;-51
2024/01/14 18:30:28;;;;;;;22.40;11.25;;;4.20;58.50;;;-1.12;96.89;94571.75;4948905;28;20042;-53
2024/01/14 18:32:55;;;;;;;23.67;10.63;;;4.20;58.60;;;-1.12;96.25;94576.19;4937443;28;20042;-52
2024/01/14 18:35:21;;;;;;;22.90;13.00;;;4.20;58.80;;;-1.12;96.79;94560.50;4937884;28;20134;-48
2024/01/14 18:37:50;;;;;;;23.13;12.68;;;4.20;58.80;;;-1.10;96.68;94556.66;4938644;28;20098;-51
2024/01/14 18:40:16;;;;;;;21.60;11.40;;;4.20;58.90;;;-1.06;97.28;94564.88;4951159;28;20031;-51
2024/01/14 18:42:44;;;;;;;24.75;12.63;;;4.20;59.00;;;-1.04;97.66;94555.78;4944267;28;20072;-49
2024/01/14 18:45:10;;;;;;;28.00;14.35;;;4.20;59.00;;;-1.04;97.61;94554.97;4939830;28;20434;-49
2024/01/14 18:47:36;;;;;;;24.38;11.93;;;4.20;59.00;;;-1.03;97.59;94554.00;4936995;28;20418;-49
2024/01/14 18:50:05;;;;;;;20.42;10.43;;;4.30;59.20;;;-1.03;97.27;94556.59;4942323;28;20034;-49
2024/01/14 18:52:35;;;;;;;20.58;10.48;;;4.20;59.30;;;-1.02;97.68;94556.38;4938751;28;20022;-49
2024/01/14 18:55:07;;;;;;;20.15;10.18;;;4.30;59.40;;;-0.98;98.06;94564.56;4965185;28;20054;-49
2024/01/14 18:57:34;;;;;;;;;;;4.30;59.40;;;-0.96;97.56;94565.16;4939764;28;20059;-51
2024/01/14 19:00:03;;;;;;;21.83;10.73;;;4.30;59.40;;;-0.96;97.91;94559.94;4943564;28;20360;-50
2024/01/14 19:02:28;;;;;;;29.15;13.85;;;4.30;59.60;;;-0.91;98.78;94572.34;4936229;28;20086;-53
2024/01/14 19:04:54;;;;;;;28.48;13.10;;;4.30;59.60;;;-0.90;98.90;94573.97;4934061;28;20382;-51
2024/01/14 19:07:20;;;;;;;31.50;14.07;;;4.30;59.60;;;-0.95;98.05;94570.16;4941885;29;20478;-49
2024/01/14 19:09:46;;;;;;;50.40;23.25;;;4.30;59.60;;;-0.96;98.52;94573.81;4936283;28;20471;-52
2024/01/14 19:12:13;;;;;;;34.63;17.88;;;4.40;59.60;;;-0.98;98.67;94561.97;4936650;29;20023;-49
2024/01/14 19:14:39;;;;;;;26.40;13.27;;;4.30;59.60;;;-0.99;99.54;94573.44;4933355;28;20030;-49
2024/01/14 19:17:04;;;;;;;29.42;13.90;;;4.30;59.60;;;-0.94;99.84;94576.19;4941468;29;20473;-50
2024/01/14 19:19:30;;;;;;;26.77;13.98;;;4.40;59.80;;;-0.94;99.59;94584.03;4941196;28;20042;-51
2024/01/14 19:21:57;;;;;;;25.42;12.10;;;4.30;59.70;;;-0.97;99.02;94589.72;4942110;28;20026;-50
2024/01/14 19:24:23;;;;;;;31.20;14.45;;;4.40;59.80;;;-0.94;99.05;94590.09;4943095;28;20386;-49
2024/01/14 19:26:48;;;;;;;28.08;14.32;;;4.40;59.80;;;-0.88;99.30;94598.06;4942950;28;20041;-50
2024/01/14 19:29:15;;;;;;;34.33;16.27;;;4.40;59.80;;;-0.87;99.60;94597.06;4942081;28;20089;-51
2024/01/14 19:31:42;;;;;;;30.10;14.40;;;4.40;59.80;;;-0.96;99.64;94593.94;4938235;28;20118;-53
2024/01/14 19:34:09;;;;;;;34.08;16.50;;;4.40;59.80;;;-1.00;100.00;94582.31;4939171;28;20405;-53
2024/01/14 19:36:37;;;;;;;31.88;15.10;;;4.40;59.90;;;-1.06;100.00;94585.78;4940794;28;20026;-49
2024/01/14 19:39:03;;;;;;;29.17;14.88;;;4.40;59.90;;;-1.07;100.00;94594.63;4947034;28;20034;-50
2024/01/14 19:41:30;;;;;;;124.05;54.13;;;4.40;59.90;;;-1.04;100.00;94581.13;4937159;28;20031;-49
2024/01/14 19:43:56;;;;;;;25.90;13.15;;;4.30;60.00;;;-1.02;100.00;94579.91;4945706;28;20027;-50
2024/01/14 19:46:22;;;;;;;24.27;12.48;;;4.30;60.10;;;-1.02;100.00;94577.28;4939592;28;20054;-51
2024/01/14 19:48:48;;;;;;;25.27;12.65;;;4.30;60.10;;;-1.02;100.00;94582.50;4943771;28;20118;-51
2024/01/14 19:51:13;;;;;;;25.63;12.00;;;4.30;60.20;;;-0.96;100.00;94584.25;4946675;28;20109;-49
2024/01/14 19:53:39;;;;;;;28.35;13.55;;;4.40;60.30;;;-0.98;100.00;94586.28;4950572;28;20034;-49
2024/01/14 19:56:06;;;;;;;32.90;13.80;;;4.40;60.40;;;-0.91;100.00;94588.81;4940322;28;20109;-49
2024/01/14 19:58:33;;;;;;;25.02;12.75;;;4.30;60.40;;;-0.84;100.00;94580.94;4941250;28;20114;-50
2024/01/14 20:00:59;;;;;;;33.72;16.23;;;4.40;60.50;;;-0.78;100.00;94587.91;4958385;28;20621;-50
2024/01/14 20:03:24;;;;;;;28.08;15.15;;;4.40;60.50;;;-0.75;100.00;94588.28;4943423;28;20105;-50
2024/01/14 20:05:50;;;;;;;25.33;13.25;;;4.50;60.60;;;-0.80;100.00;94588.13;4946562;28;20015;-50
2024/01/14 20:08:16;;;;;;;26.00;12.68;;;4.50;60.60;;;-0.75;100.00;94597.94;4943430;28;20038;-49
2024/01/14 20:10:42;;;;;;;28.23;13.35;;;4.50;60.60;;;-0.78;100.00;94595.75;4937182;28;20495;-50
2024/01/14 20:13:08;;;;;;;25.55;12.52;;;4.50;60.60;;;-0.75;100.00;94601.34;4941161;28;20031;-50
2024/01/14 20:15:34;;;;;;;30.30;13.48;;;4.50;60.60;;;-0.71;100.00;94601.72;4940856;28;20484;-52
2024/01/14 20:17:59;;;;;;;27.33;12.68;;;4.60;60.60;;;-0.71;100.00;94596.47;4948167;28;20113;-54
2024/01/14 20:20:26;;;;;;;28.10;12.50;;;4.60;60.70;;;-0.71;100.00;94594.66;4934142;28;20166;-50
2024/01/14 20:22:52;;;;;;;24.92;12.98;;;4.60;60.70;;;-0.74;100.00;94595.09;4935614;28;20038;-53
2024/01/14 20:25:18;;;;;;;36.58;18.35;;;4.60;60.70;;;-0.75;100.00;94595.31;4941942;28;20393;-54
2024/01/14 20:27:43;;;;;;;28.35;12.88;;;4.60;60.80;;;-0.78;100.00;94588.72;4939366;28;20027;-53
2024/01/14 20:30:11;;;;;;;30.40;13.35;;;4.60;60.80;;;-0.75;100.00;94608.41;4939933;28;20030;-51
2024/01/14 20:32:37;;;;;;;27.40;13.00;;;4.60;61.00;;;-0.72;100.00;94605.34;4941445;28;20062;-53
2024/01/14 20:35:07;;;;;;;46.00;19.40;;;4.60;61.00;;;-0.67;100.00;94594.22;4942413;28;20026;-51
2024/01/14 20:37:35;;;;;;;28.60;14.23;;;4.60;61.10;;;-0.70;100.00;94585.78;4937100;28;20047;-51
2024/01/14 20:40:03;;;;;;;38.33;18.10;;;4.60;61.20;;;-0.67;100.00;94586.38;4938601;28;20034;-51
2024/01/14 20:42:29;;;;;;;34.92;16.50;;;4.60;61.30;;;-0.64;100.00;94585.94;4934828;28;20083;-55
2024/01/14 20:44:55;;;;;;;35.50;15.73;;;4.60;61.40;;;-0.67;100.00;94578.53;4934145;28;20385;-50
2024/01/14 20:47:21;;;;;;;33.97;15.15;;;4.60;61.50;;;-0.77;100.00;94576.44;4931256;28;20536;-50
2024/01/14 20:49:47;;;;;;;24.92;12.27;;;4.60;61.90;;;-0.77;100.00;94577.22;4940892;28;20031;-52
2024/01/14 20:52:14;;;;;;;32.80;15.88;;;4.60;62.00;;;-0.75;100.00;94577.81;4940106;28;20486;-50
2024/01/14 20:54:40;;;;;;;35.42;15.10;;;4.60;62.30;;;-0.78;100.00;94577.44;4938960;28;20117;-51
2024/01/14 20:57:11;;;;;;;32.65;16.02;;;4.60;63.40;;;-0.75;100.00;94574.41;4937183;28;20126;-52
2024/01/14 20:59:38;;;;;;;32.35;14.13;;;4.60;63.00;;;-0.78;100.00;94575.63;4930795;28;20495;-50
2024/01/14 21:02:05;;;;;;;43.35;18.15;;;4.50;63.30;;;-0.74;100.00;94573.38;4939918;28;20019;-53
2024/01/14 21:04:31;;;;;;;60.67;24.80;;;4.50;63.40;;;-0.76;100.00;94575.41;4939038;28;20026;-53
2024/01/14 21:06:57;;;;;;;42.08;16.67;;;4.50;63.80;;;-0.82;100.00;94568.44;4943679;28;20058;-54
2024/01/14 21:09:23;;;;;;;38.03;15.75;;;4.50;64.00;;;-0.83;100.00;94572.06;4934093;28;20027;-50
2024/01/14 21:11:48;;;;;;;47.08;19.08;;;4.50;64.10;;;-0.83;100.00;94564.22;4931660;28;20031;-49
2024/01/14 21:14:18;;;;;;;66.57;25.45;;;4.40;64.20;;;-0.79;100.00;94566.16;4938396;28;20023;-52
2024/01/14 21:16:44;;;;;;;55.38;22.35;;;4.40;64.40;;;-0.77;100.00;94568.59;4934176;28;20026;-50